Time;durP1;ratioP1;P1;durP2;ratioP2;P2;SDS_P1;SDS_P2;PMS_P1;PMS_P2;Temp;Humidity;BMP_temperature;BMP_pressure;BME280_temperature;BME280_humidity;BME280_pressure;Samples;Min_cycle;Max_cycle;Signal;HPM_P1;HPM_P2
2024/01/09 00:02:25;;;;;;;6.70;5.50;;;-0.30;78.80;;;;;;5074200;28;20824;-60
2024/01/09 00:04:52;;;;;;;7.80;5.50;;;-0.30;78.90;;;;;;5074146;28;20451;-60
2024/01/09 00:07:19;;;;;;;10.37;5.87;;;-0.30;79.00;;;;;;5074107;28;20444;-60
2024/01/09 00:09:45;;;;;;;7.30;5.07;;;-0.30;79.00;;;;;;5074034;28;20448;-60
2024/01/09 00:12:12;;;;;;;10.43;6.17;;;-0.30;78.80;;;;;;5074068;28;20528;-60
2024/01/09 00:14:39;;;;;;;11.87;5.33;;;-0.30;79.00;;;;;;5074090;28;20444;-60
2024/01/09 00:17:05;;;;;;;7.50;5.90;;;-0.30;78.90;;;;;;5073892;28;20464;-58
2024/01/09 00:19:34;;;;;;;8.27;6.23;;;-0.40;78.70;;;;;;5073788;28;20483;-59
2024/01/09 00:22:02;;;;;;;8.80;5.23;;;-0.30;79.30;;;;;;5074407;28;20445;-58
2024/01/09 00:24:29;;;;;;;8.87;5.97;;;-0.30;79.70;;;;;;5073763;28;20471;-59
2024/01/09 00:26:56;;;;;;;11.20;5.17;;;-0.40;79.70;;;;;;5074020;28;20440;-58
2024/01/09 00:29:22;;;;;;;9.20;5.73;;;-0.40;79.60;;;;;;5073785;28;20464;-60
2024/01/09 00:31:49;;;;;;;9.00;6.23;;;-0.40;79.60;;;;;;5073696;28;20972;-58
2024/01/09 00:34:16;;;;;;;9.50;5.73;;;-0.40;79.70;;;;;;5073260;28;20939;-58
2024/01/09 00:36:44;;;;;;;9.87;5.40;;;-0.40;80.80;;;;;;5073528;28;20835;-58
2024/01/09 00:39:11;;;;;;;9.17;6.27;;;-0.40;80.40;;;;;;5073430;28;20494;-58
2024/01/09 00:41:38;;;;;;;6.60;5.43;;;-0.40;80.40;;;;;;5073556;28;20532;-58
2024/01/09 00:44:05;;;;;;;7.40;5.33;;;-0.40;80.20;;;;;;5073744;28;20445;-59
2024/01/09 00:46:31;;;;;;;7.40;5.40;;;-0.40;80.40;;;;;;5073838;28;20541;-58
2024/01/09 00:48:58;;;;;;;9.23;5.87;;;-0.40;80.70;;;;;;5073447;28;20468;-58
2024/01/09 00:51:25;;;;;;;8.73;5.53;;;-0.40;80.90;;;;;;5073661;28;20452;-58
2024/01/09 00:53:54;;;;;;;8.23;5.63;;;-0.50;80.80;;;;;;5073838;28;20444;-58
2024/01/09 00:56:21;;;;;;;7.33;5.70;;;-0.50;80.60;;;;;;5073240;28;20483;-59
2024/01/09 00:58:48;;;;;;;8.50;6.10;;;-0.50;80.50;;;;;;5072262;28;20982;-58
2024/01/09 01:01:15;;;;;;;8.67;5.50;;;-0.50;80.80;;;;;;5073402;28;20481;-58
2024/01/09 01:03:42;;;;;;;8.23;4.90;;;-0.50;81.00;;;;;;5073150;28;20445;-58
2024/01/09 01:06:08;;;;;;;7.80;5.20;;;-0.50;81.30;;;;;;5073160;28;20449;-58
2024/01/09 01:08:37;;;;;;;11.47;6.60;;;-0.50;81.10;;;;;;5073230;28;20513;-58
2024/01/09 01:11:06;;;;;;;7.23;5.33;;;-0.60;81.10;;;;;;5075467;28;20441;-58
2024/01/09 01:13:33;;;;;;;9.77;7.07;;;-0.60;81.30;;;;;;5077335;28;20482;-58
2024/01/09 01:15:59;;;;;;;6.00;5.40;;;-0.60;81.70;;;;;;5076935;28;20969;-58
2024/01/09 01:18:26;;;;;;;8.50;6.17;;;-0.60;82.10;;;;;;5076929;28;20475;-58
2024/01/09 01:20:53;;;;;;;7.33;5.70;;;-0.60;82.10;;;;;;5077053;28;20487;-58
2024/01/09 01:23:20;;;;;;;10.23;5.43;;;-0.60;82.00;;;;;;5077387;28;20449;-58
2024/01/09 01:25:46;;;;;;;9.00;5.10;;;-0.60;82.00;;;;;;5076872;28;20447;-58
2024/01/09 01:28:14;;;;;;;8.37;5.20;;;-0.60;82.00;;;;;;5076839;28;20476;-58
2024/01/09 01:30:41;;;;;;;10.80;5.57;;;-0.60;81.80;;;;;;5077309;28;20444;-58
2024/01/09 01:33:08;;;;;;;8.23;5.70;;;-0.60;82.20;;;;;;5076946;28;20440;-58
2024/01/09 01:35:35;;;;;;;9.00;5.73;;;-0.60;82.60;;;;;;5076565;28;20459;-58
2024/01/09 01:38:01;;;;;;;7.57;5.87;;;-0.60;82.20;;;;;;5076924;28;20464;-58
2024/01/09 01:40:28;;;;;;;10.60;5.97;;;-0.60;82.10;;;;;;5076486;28;21020;-58
2024/01/09 01:42:57;;;;;;;8.50;5.27;;;-0.60;82.40;;;;;;5076545;28;20958;-58
2024/01/09 01:45:26;;;;;;;7.30;6.50;;;-0.70;82.20;;;;;;5076438;28;20873;-58
2024/01/09 01:47:53;;;;;;;6.73;5.73;;;-0.70;82.40;;;;;;5076335;28;20464;-58
2024/01/09 01:50:20;;;;;;;10.40;5.50;;;-0.70;82.70;;;;;;5076820;28;20464;-58
2024/01/09 01:52:48;;;;;;;10.17;6.47;;;-0.70;83.10;;;;;;5076566;28;20444;-58
2024/01/09 01:55:18;;;;;;;12.13;6.30;;;-0.70;83.30;;;;;;5076504;28;20448;-58
2024/01/09 01:57:46;;;;;;;8.27;5.93;;;-0.70;83.40;;;;;;5076711;28;20822;-58
2024/01/09 02:00:14;;;;;;;11.77;6.57;;;-0.70;83.20;;;;;;5076631;28;20487;-58
2024/01/09 02:02:45;;;;;;;9.77;6.03;;;-0.70;83.50;;;;;;5077084;28;20514;-58
2024/01/09 02:05:12;;;;;;;8.30;6.33;;;-0.70;83.90;;;;;;5076335;28;20444;-58
2024/01/09 02:07:42;;;;;;;10.63;6.77;;;-0.70;84.10;;;;;;5076090;28;20471;-58
2024/01/09 02:10:10;;;;;;;8.77;5.70;;;-0.70;84.50;;;;;;5076232;28;20436;-58
2024/01/09 02:12:37;;;;;;;14.30;6.00;;;-0.70;84.30;;;;;;5076248;28;20445;-58
2024/01/09 02:15:04;;;;;;;9.33;6.20;;;-0.80;84.10;;;;;;5076453;28;20447;-58
2024/01/09 02:17:32;;;;;;;11.40;6.60;;;-0.70;83.90;;;;;;5076005;28;20460;-58
2024/01/09 02:20:01;;;;;;;8.73;5.33;;;-0.80;83.50;;;;;;5075957;28;20488;-57
2024/01/09 02:22:27;;;;;;;8.70;6.10;;;-0.80;83.60;;;;;;5075234;28;20447;-58
2024/01/09 02:24:54;;;;;;;7.93;5.63;;;-0.80;83.80;;;;;;5076242;28;20449;-58
2024/01/09 02:27:27;;;;;;;7.43;5.67;;;-0.90;84.10;;;;;;5076062;28;20463;-58
2024/01/09 02:29:55;;;;;;;11.80;6.40;;;-0.90;84.60;;;;;;5076371;28;20925;-58
2024/01/09 02:32:22;;;;;;;9.53;5.90;;;-0.90;84.70;;;;;;5076911;28;20935;-58
2024/01/09 02:34:50;;;;;;;9.80;6.33;;;-0.90;84.70;;;;;;5077547;28;20460;-58
2024/01/09 02:37:16;;;;;;;11.17;6.07;;;-0.90;84.70;;;;;;5076661;28;20519;-58
2024/01/09 02:39:43;;;;;;;10.20;5.47;;;-0.90;84.70;;;;;;5075992;28;20484;-58
2024/01/09 02:42:10;;;;;;;10.73;5.93;;;-0.90;84.30;;;;;;5075848;28;20961;-58
2024/01/09 02:44:36;;;;;;;9.23;5.40;;;-0.90;84.60;;;;;;5075971;28;20447;-58
2024/01/09 02:47:05;;;;;;;7.97;5.60;;;-0.90;84.70;;;;;;5075583;28;20946;-58
2024/01/09 02:49:31;;;;;;;8.60;5.73;;;-0.90;84.90;;;;;;5076091;28;20445;-58
2024/01/09 02:52:00;;;;;;;9.80;6.30;;;-1.00;84.90;;;;;;5075808;28;20445;-58
2024/01/09 02:54:26;;;;;;;9.23;5.17;;;-1.00;85.00;;;;;;5075922;28;20445;-58
2024/01/09 02:56:53;;;;;;;6.50;4.70;;;-1.00;84.80;;;;;;5076016;28;20475;-58
2024/01/09 02:59:20;;;;;;;7.60;5.87;;;-1.00;84.90;;;;;;5075516;28;20460;-58
2024/01/09 03:01:46;;;;;;;9.63;5.23;;;-1.10;84.90;;;;;;5075416;28;20488;-58
2024/01/09 03:04:14;;;;;;;7.77;5.50;;;-1.10;85.30;;;;;;5075664;28;20445;-58
2024/01/09 03:06:41;;;;;;;8.53;5.07;;;-1.10;85.60;;;;;;5075632;28;20457;-59
2024/01/09 03:09:11;;;;;;;8.37;6.10;;;-1.10;85.30;;;;;;5075644;28;20469;-58
2024/01/09 03:11:38;;;;;;;8.27;5.37;;;-1.10;85.40;;;;;;5076093;28;20449;-58
2024/01/09 03:14:04;;;;;;;8.00;5.20;;;-1.10;85.80;;;;;;5075413;28;20444;-58
2024/01/09 03:16:31;;;;;;;6.60;5.40;;;-1.20;85.60;;;;;;5075770;28;20453;-58
2024/01/09 03:18:58;;;;;;;7.27;4.77;;;-1.10;85.90;;;;;;5074835;28;20982;-58
2024/01/09 03:21:26;;;;;;;6.63;4.70;;;-1.20;85.80;;;;;;5074996;28;20480;-58
2024/01/09 03:23:52;;;;;;;8.97;5.50;;;-1.20;85.60;;;;;;5075119;28;20445;-58
2024/01/09 03:26:21;;;;;;;9.17;5.90;;;-1.10;85.50;;;;;;5075075;28;20452;-58
2024/01/09 03:28:47;;;;;;;7.60;5.10;;;-1.10;85.30;;;;;;5074836;28;20472;-58
2024/01/09 03:31:19;;;;;;;7.37;5.07;;;-1.10;85.20;;;;;;5074878;28;20820;-58
2024/01/09 03:33:46;;;;;;;10.30;4.93;;;-1.10;85.30;;;;;;5074686;28;20441;-58
2024/01/09 03:36:13;;;;;;;6.60;4.70;;;-1.10;85.40;;;;;;5074435;28;20459;-58
2024/01/09 03:38:41;;;;;;;8.10;5.57;;;-1.10;85.50;;;;;;5074345;28;21006;-58
2024/01/09 03:41:08;;;;;;;8.10;5.80;;;-1.10;85.10;;;;;;5074583;28;20481;-58
2024/01/09 03:43:35;;;;;;;8.10;5.83;;;-1.10;85.10;;;;;;5074906;28;20444;-58
2024/01/09 03:46:02;;;;;;;8.60;5.30;;;-1.20;85.00;;;;;;5074476;28;20448;-58
2024/01/09 03:48:28;;;;;;;7.70;5.00;;;-1.20;84.90;;;;;;5074485;28;20475;-58
2024/01/09 03:50:55;;;;;;;8.50;4.90;;;-1.20;84.70;;;;;;5074497;28;20440;-58
2024/01/09 03:53:22;;;;;;;8.97;5.40;;;-1.20;84.20;;;;;;5074475;28;20440;-58
2024/01/09 03:55:50;;;;;;;7.20;5.13;;;-1.20;84.20;;;;;;5074052;28;20452;-58
2024/01/09 03:58:17;;;;;;;8.20;6.17;;;-1.20;84.20;;;;;;5074009;28;20471;-60
2024/01/09 04:00:44;;;;;;;6.00;4.73;;;-1.20;84.10;;;;;;5074114;28;20507;-58
2024/01/09 04:03:10;;;;;;;7.83;5.17;;;-1.30;84.30;;;;;;5074144;28;20444;-58
2024/01/09 04:05:37;;;;;;;7.03;4.83;;;-1.20;84.50;;;;;;5074212;28;20440;-58
2024/01/09 04:08:04;;;;;;;9.07;5.83;;;-1.20;84.50;;;;;;5073960;28;20463;-58
2024/01/09 04:10:31;;;;;;;6.93;5.00;;;-1.30;84.30;;;;;;5073752;28;20965;-59
2024/01/09 04:12:59;;;;;;;6.03;5.00;;;-1.30;84.30;;;;;;5073833;28;20448;-58
2024/01/09 04:15:25;;;;;;;8.10;6.10;;;-1.30;84.20;;;;;;5073868;28;20445;-58
2024/01/09 04:17:52;;;;;;;10.13;5.80;;;-1.30;84.30;;;;;;5074051;28;20456;-58
2024/01/09 04:20:19;;;;;;;7.73;5.40;;;-1.30;84.20;;;;;;5073734;28;20480;-59
2024/01/09 04:22:45;;;;;;;7.00;5.00;;;-1.30;84.70;;;;;;5073546;28;20852;-58
2024/01/09 04:25:13;;;;;;;6.70;5.20;;;-1.30;84.80;;;;;;5073864;28;20441;-58
2024/01/09 04:27:39;;;;;;;9.90;5.23;;;-1.30;84.70;;;;;;5073665;28;20522;-58
2024/01/09 04:30:09;;;;;;;9.60;5.67;;;-1.30;84.60;;;;;;5073593;28;20448;-58
2024/01/09 04:32:35;;;;;;;8.57;5.70;;;-1.30;84.50;;;;;;5073586;28;20447;-58
2024/01/09 04:35:02;;;;;;;7.60;4.80;;;-1.30;84.40;;;;;;5073222;28;20970;-58
2024/01/09 04:37:29;;;;;;;9.47;5.70;;;-1.20;84.40;;;;;;5073577;28;20465;-58
2024/01/09 04:39:55;;;;;;;7.60;5.70;;;-1.30;84.90;;;;;;5073373;28;20854;-58
2024/01/09 04:42:22;;;;;;;7.53;5.30;;;-1.20;84.00;;;;;;5073415;28;20484;-59
2024/01/09 04:44:49;;;;;;;6.87;5.03;;;-1.30;83.60;;;;;;5073037;28;20441;-58
2024/01/09 04:47:17;;;;;;;7.50;4.83;;;-1.30;83.70;;;;;;5073451;28;20440;-58
2024/01/09 04:49:44;;;;;;;9.03;5.40;;;-1.30;83.80;;;;;;5073595;28;20855;-58
2024/01/09 04:52:11;;;;;;;6.20;4.73;;;-1.30;84.00;;;;;;5072925;28;20961;-58
2024/01/09 04:54:38;;;;;;;10.10;4.90;;;-1.40;84.50;;;;;;5073352;28;20441;-58
2024/01/09 04:57:05;;;;;;;6.00;4.13;;;-1.40;84.30;;;;;;5072929;28;20796;-57
2024/01/09 04:59:31;;;;;;;7.40;4.60;;;-1.40;84.30;;;;;;5073286;28;20452;-58
2024/01/09 05:02:01;;;;;;;6.40;4.60;;;-1.50;84.70;;;;;;5073232;28;20479;-58
2024/01/09 05:04:29;;;;;;;8.20;5.03;;;-1.50;85.00;;;;;;5073984;28;20471;-58
2024/01/09 05:06:56;;;;;;;9.60;5.70;;;-1.50;85.60;;;;;;5072958;28;20455;-58
2024/01/09 05:09:23;;;;;;;11.27;5.90;;;-1.50;85.80;;;;;;5073094;28;20871;-58
2024/01/09 05:11:49;;;;;;;7.20;4.70;;;-1.50;85.80;;;;;;5073039;28;20472;-58
2024/01/09 05:14:17;;;;;;;7.17;5.10;;;-1.50;85.80;;;;;;5072928;28;20947;-58
2024/01/09 05:16:43;;;;;;;6.83;4.77;;;-1.60;85.00;;;;;;5073194;28;20460;-58
2024/01/09 05:19:10;;;;;;;5.47;4.20;;;-1.60;85.20;;;;;;5073079;28;20468;-58
2024/01/09 05:21:38;;;;;;;6.37;5.17;;;-1.60;84.90;;;;;;5072985;28;20476;-58
2024/01/09 05:24:05;;;;;;;8.90;5.10;;;-1.60;84.90;;;;;;5073136;28;20835;-58
2024/01/09 05:26:32;;;;;;;11.47;5.03;;;-1.60;85.10;;;;;;5073122;28;20437;-58
2024/01/09 05:28:59;;;;;;;7.13;4.70;;;-1.60;85.10;;;;;;5073017;28;20456;-58
2024/01/09 05:31:25;;;;;;;8.00;4.70;;;-1.60;85.00;;;;;;5072850;28;20436;-58
2024/01/09 05:33:52;;;;;;;11.03;4.70;;;-1.60;85.20;;;;;;5073133;28;20785;-58
2024/01/09 05:36:22;;;;;;;7.43;5.43;;;-1.60;85.10;;;;;;5072688;28;20458;-58
2024/01/09 05:38:50;;;;;;;8.77;5.23;;;-1.60;84.90;;;;;;5072903;28;20518;-58
2024/01/09 05:41:21;;;;;;;9.70;5.53;;;-1.60;84.90;;;;;;5072726;28;20508;-58
2024/01/09 05:43:47;;;;;;;8.60;4.93;;;-1.70;84.80;;;;;;5072886;28;20938;-59
2024/01/09 05:46:14;;;;;;;6.40;4.23;;;-1.70;84.80;;;;;;5073606;28;20448;-58
2024/01/09 05:48:42;;;;;;;6.63;4.63;;;-1.70;84.90;;;;;;5072936;28;20463;-58
2024/01/09 05:51:09;;;;;;;6.83;6.10;;;-1.60;84.90;;;;;;5073186;28;20447;-58
2024/01/09 05:53:36;;;;;;;8.10;5.40;;;-1.70;84.60;;;;;;5072899;28;20444;-58
2024/01/09 05:56:04;;;;;;;6.47;4.83;;;-1.70;84.80;;;;;;5073485;28;20440;-57
2024/01/09 05:58:31;;;;;;;5.43;4.00;;;-1.70;85.00;;;;;;5076570;28;20457;-58
2024/01/09 06:00:57;;;;;;;9.20;5.40;;;-1.80;85.00;;;;;;5076684;28;20480;-58
2024/01/09 06:03:24;;;;;;;8.63;5.43;;;-1.70;85.20;;;;;;5076516;28;20447;-58
2024/01/09 06:05:51;;;;;;;9.00;4.90;;;-1.70;85.10;;;;;;5076309;28;20784;-57
2024/01/09 06:08:17;;;;;;;8.20;4.50;;;-1.80;85.00;;;;;;5076346;28;20467;-58
2024/01/09 06:10:44;;;;;;;9.63;5.30;;;-1.80;85.20;;;;;;5076002;28;20448;-58
2024/01/09 06:13:12;;;;;;;9.30;5.50;;;-1.80;85.40;;;;;;5076780;28;20440;-58
2024/01/09 06:15:39;;;;;;;9.87;5.67;;;-1.80;85.70;;;;;;5076100;28;20452;-57
2024/01/09 06:18:07;;;;;;;7.67;5.43;;;-1.80;85.90;;;;;;5076355;28;20460;-57
2024/01/09 06:20:34;;;;;;;7.27;4.80;;;-1.80;85.80;;;;;;5076162;28;20459;-58
2024/01/09 06:23:00;;;;;;;5.77;4.80;;;-1.80;85.90;;;;;;5076311;28;20494;-58
2024/01/09 06:25:27;;;;;;;7.63;5.27;;;-1.80;86.30;;;;;;5076274;28;20459;-58
2024/01/09 06:27:53;;;;;;;5.83;4.77;;;-1.80;86.20;;;;;;5076177;28;20535;-58
2024/01/09 06:30:22;;;;;;;6.90;4.50;;;-1.80;86.20;;;;;;5076155;28;20448;-58
2024/01/09 06:32:49;;;;;;;7.53;5.20;;;-1.90;86.20;;;;;;5076013;28;20478;-57
2024/01/09 06:35:16;;;;;;;11.00;6.10;;;-1.90;86.60;;;;;;5075927;28;20456;-58
2024/01/09 06:37:43;;;;;;;11.60;6.30;;;-1.90;86.90;;;;;;5075885;28;20469;-57
2024/01/09 06:40:10;;;;;;;8.77;5.07;;;-1.90;86.90;;;;;;5075474;28;20445;-57
2024/01/09 06:42:39;;;;;;;6.73;4.70;;;-1.90;86.70;;;;;;5075790;28;21013;-58
2024/01/09 06:45:06;;;;;;;6.50;4.20;;;-1.90;86.60;;;;;;5076190;28;20444;-58
2024/01/09 06:47:35;;;;;;;8.33;5.40;;;-1.90;86.60;;;;;;5075805;28;20457;-57
2024/01/09 06:50:02;;;;;;;8.93;5.40;;;-2.00;86.50;;;;;;5076026;28;20445;-58
2024/01/09 06:52:28;;;;;;;6.93;4.57;;;-2.00;86.20;;;;;;5075736;28;20444;-58
2024/01/09 06:54:55;;;;;;;9.63;5.27;;;-2.00;86.20;;;;;;5075671;28;20441;-58
2024/01/09 06:57:22;;;;;;;9.40;4.50;;;-2.00;86.40;;;;;;5075414;28;20441;-58
2024/01/09 06:59:48;;;;;;;8.47;4.83;;;-1.90;86.40;;;;;;5075311;28;20453;-57
2024/01/09 07:02:15;;;;;;;7.27;4.90;;;-2.00;86.40;;;;;;5075360;28;20488;-58
2024/01/09 07:04:43;;;;;;;12.80;5.80;;;-2.00;86.80;;;;;;5075339;28;20444;-57
2024/01/09 07:07:12;;;;;;;7.00;4.60;;;-2.00;87.00;;;;;;5075226;28;20482;-57
2024/01/09 07:09:39;;;;;;;7.53;4.97;;;-2.10;86.70;;;;;;5074668;28;20490;-57
2024/01/09 07:12:08;;;;;;;8.63;5.40;;;-2.00;86.90;;;;;;5074719;28;20947;-57
2024/01/09 07:14:34;;;;;;;8.00;5.80;;;-2.10;86.80;;;;;;5075078;28;20451;-57
2024/01/09 07:17:01;;;;;;;8.30;5.57;;;-2.10;86.60;;;;;;5075289;28;20436;-57
2024/01/09 07:19:28;;;;;;;8.80;5.53;;;-2.10;86.80;;;;;;5074860;28;20847;-57
2024/01/09 07:21:56;;;;;;;10.60;7.23;;;-2.10;87.30;;;;;;5074817;28;20484;-57
2024/01/09 07:24:22;;;;;;;11.03;5.97;;;-2.10;87.20;;;;;;5074794;28;20445;-57
2024/01/09 07:26:49;;;;;;;11.60;6.97;;;-2.10;87.00;;;;;;5075129;28;20436;-57
2024/01/09 07:29:19;;;;;;;8.90;6.10;;;-2.10;86.90;;;;;;5074640;28;20476;-57
2024/01/09 07:31:45;;;;;;;10.70;6.70;;;-2.10;87.20;;;;;;5074738;28;20450;-57
2024/01/09 07:34:12;;;;;;;10.43;6.30;;;-2.10;87.20;;;;;;5074748;28;20452;-57
2024/01/09 07:36:39;;;;;;;10.30;5.80;;;-2.20;87.10;;;;;;5074279;28;20841;-57
2024/01/09 07:39:08;;;;;;;8.57;5.80;;;-2.20;87.50;;;;;;5074228;28;20564;-57
2024/01/09 07:41:35;;;;;;;11.33;6.20;;;-2.20;87.80;;;;;;5074378;28;20485;-57
2024/01/09 07:44:02;;;;;;;12.23;7.33;;;-2.20;88.00;;;;;;5074483;28;20495;-57
2024/01/09 07:46:30;;;;;;;12.87;8.20;;;-2.10;87.90;;;;;;5073758;28;20441;-57
2024/01/09 07:48:57;;;;;;;13.97;7.97;;;-2.20;87.50;;;;;;5073914;28;20983;-56
2024/01/09 07:51:23;;;;;;;16.70;9.33;;;-2.20;87.80;;;;;;5074059;28;20447;-57
2024/01/09 07:53:50;;;;;;;15.00;8.77;;;-2.20;88.10;;;;;;5074153;28;20448;-57
2024/01/09 07:56:19;;;;;;;13.17;7.40;;;-2.20;88.10;;;;;;5073963;28;20441;-57
2024/01/09 07:58:46;;;;;;;11.00;6.90;;;-2.20;88.00;;;;;;5074246;28;20464;-57
2024/01/09 08:01:13;;;;;;;13.50;6.90;;;-2.20;87.70;;;;;;5073935;28;20443;-57
2024/01/09 08:03:41;;;;;;;9.57;5.17;;;-2.20;87.80;;;;;;5074179;28;20441;-57
2024/01/09 08:06:09;;;;;;;10.50;6.20;;;-2.20;88.00;;;;;;5073953;28;20440;-57
2024/01/09 08:08:38;;;;;;;9.30;6.00;;;-2.20;88.10;;;;;;5073966;28;20808;-57
2024/01/09 08:11:05;;;;;;;9.63;4.87;;;-2.20;88.40;;;;;;5073572;28;21012;-57
2024/01/09 08:13:33;;;;;;;6.47;4.93;;;-2.20;88.50;;;;;;5073869;28;20491;-57
2024/01/09 08:16:00;;;;;;;11.40;6.97;;;-2.10;88.80;;;;;;5073676;28;20445;-57
2024/01/09 08:18:27;;;;;;;8.47;6.10;;;-2.20;88.60;;;;;;5073868;28;20831;-57
2024/01/09 08:20:53;;;;;;;8.60;6.77;;;-2.10;88.10;;;;;;5073025;28;20440;-57
2024/01/09 08:23:20;;;;;;;9.73;6.10;;;-2.10;87.40;;;;;;5073704;28;20480;-57
2024/01/09 08:25:47;;;;;;;6.90;5.30;;;-2.10;87.50;;;;;;5073647;28;20452;-58
2024/01/09 08:28:13;;;;;;;9.63;5.87;;;-2.10;87.40;;;;;;5073419;28;20465;-57
2024/01/09 08:30:41;;;;;;;10.33;6.40;;;-2.10;87.40;;;;;;5073679;28;20440;-57
2024/01/09 08:33:08;;;;;;;10.67;6.93;;;-2.10;87.20;;;;;;5073537;28;20440;-57
2024/01/09 08:35:35;;;;;;;9.60;6.67;;;-2.10;87.40;;;;;;5073365;28;20444;-57
2024/01/09 08:38:02;;;;;;;11.37;6.20;;;-2.00;87.50;;;;;;5073503;28;20465;-57
2024/01/09 08:40:28;;;;;;;9.17;5.97;;;-2.00;87.60;;;;;;5073523;28;20449;-57
2024/01/09 08:42:55;;;;;;;10.70;6.40;;;-2.00;87.60;;;;;;5073468;28;20484;-57
2024/01/09 08:45:24;;;;;;;8.60;6.27;;;-2.00;87.60;;;;;;5073173;28;20954;-56
2024/01/09 08:47:52;;;;;;;9.03;6.57;;;-2.00;87.10;;;;;;5073367;28;20502;-57
2024/01/09 08:50:19;;;;;;;7.60;5.53;;;-2.10;87.00;;;;;;5073368;28;20440;-57
2024/01/09 08:52:45;;;;;;;10.30;6.43;;;-2.20;86.70;;;;;;5073398;28;20439;-58
2024/01/09 08:55:12;;;;;;;10.53;6.80;;;-2.10;86.80;;;;;;5073180;28;20931;-57
2024/01/09 08:57:39;;;;;;;10.50;7.13;;;-2.10;86.80;;;;;;5073524;28;20863;-58
2024/01/09 09:00:07;;;;;;;8.67;6.73;;;-2.10;86.70;;;;;;5073578;28;20437;-58
2024/01/09 09:02:34;;;;;;;8.87;5.70;;;-2.10;86.80;;;;;;5073358;28;20499;-58
2024/01/09 09:05:02;;;;;;;9.97;6.57;;;-2.00;86.90;;;;;;5073277;28;20451;-58
2024/01/09 09:07:29;;;;;;;7.77;5.40;;;-2.00;86.50;;;;;;5073208;28;20461;-58
2024/01/09 09:09:55;;;;;;;11.03;7.40;;;-2.00;86.80;;;;;;5073301;28;20440;-58
2024/01/09 09:12:22;;;;;;;10.27;6.10;;;-1.90;86.40;;;;;;5073143;28;20444;-58
2024/01/09 09:14:49;;;;;;;9.30;6.60;;;-1.90;86.60;;;;;;5073434;28;20448;-58
2024/01/09 09:17:17;;;;;;;9.30;6.20;;;-1.90;86.70;;;;;;5073066;28;20437;-58
2024/01/09 09:19:43;;;;;;;8.50;6.63;;;-1.80;86.80;;;;;;5073198;28;20444;-58
2024/01/09 09:22:12;;;;;;;8.30;6.40;;;-1.70;86.50;;;;;;5072985;28;20484;-58
2024/01/09 09:24:39;;;;;;;9.20;6.07;;;-1.70;85.70;;;;;;5073094;28;20473;-58
2024/01/09 09:27:06;;;;;;;8.30;5.70;;;-1.70;85.80;;;;;;5073103;28;20444;-58
2024/01/09 09:29:32;;;;;;;11.07;7.57;;;-1.60;85.60;;;;;;5073870;28;20499;-58
2024/01/09 09:31:59;;;;;;;8.90;6.00;;;-1.60;85.20;;;;;;5075329;28;20440;-59
2024/01/09 09:34:26;;;;;;;7.87;5.73;;;-1.60;85.40;;;;;;5076511;28;20961;-58
2024/01/09 09:36:53;;;;;;;11.53;5.90;;;-1.50;85.00;;;;;;5077021;28;20452;-59
2024/01/09 09:39:21;;;;;;;7.07;5.70;;;-1.50;84.30;;;;;;5076865;28;20862;-59
2024/01/09 09:41:51;;;;;;;11.10;5.77;;;-1.50;84.60;;;;;;5076787;28;20444;-59
2024/01/09 09:44:21;;;;;;;7.03;5.83;;;-1.50;84.50;;;;;;5077109;28;20424;-59
2024/01/09 09:46:47;;;;;;;12.83;6.90;;;-1.40;84.70;;;;;;5076792;28;20445;-59
2024/01/09 09:49:15;;;;;;;10.93;5.67;;;-1.40;85.20;;;;;;5076732;28;20533;-59
2024/01/09 09:51:44;;;;;;;10.70;6.60;;;-1.30;85.40;;;;;;5076360;28;20433;-59
2024/01/09 09:54:13;;;;;;;9.53;5.80;;;-1.30;84.30;;;;;;5076711;28;20453;-59
2024/01/09 09:56:41;;;;;;;13.73;6.77;;;-1.20;84.50;;;;;;5076566;28;20444;-59
2024/01/09 09:59:10;;;;;;;13.13;7.23;;;-1.20;83.90;;;;;;5076479;28;20556;-60
2024/01/09 10:01:37;;;;;;;7.97;5.63;;;-1.10;84.60;;;;;;5076484;28;20441;-60
2024/01/09 10:04:17;;;;;;;8.87;5.73;;;-1.00;84.60;;;;;;5076391;28;20476;-60
2024/01/09 10:06:47;;;;;;;10.70;6.73;;;-0.90;84.00;;;;;;5076441;28;20420;-60
2024/01/09 10:09:15;;;;;;;10.57;6.60;;;-0.80;83.10;;;;;;5075993;28;20997;-60
2024/01/09 10:11:43;;;;;;;9.40;6.20;;;-0.80;82.30;;;;;;5076254;28;20444;-60
2024/01/09 10:14:10;;;;;;;12.07;6.90;;;-0.80;82.00;;;;;;5076116;28;20441;-59
2024/01/09 10:16:49;;;;;;;8.67;6.23;;;-0.70;81.90;;;;;;5075902;28;20934;-60
2024/01/09 10:19:17;;;;;;;10.50;6.47;;;-0.70;81.90;;;;;;5076150;28;20483;-60
2024/01/09 10:21:43;;;;;;;8.43;5.53;;;-0.60;82.30;;;;;;5076060;28;20493;-60
2024/01/09 10:24:10;;;;;;;9.60;6.87;;;-0.50;80.60;;;;;;5075983;28;20484;-60
2024/01/09 10:26:37;;;;;;;8.30;6.10;;;-0.50;79.90;;;;;;5076048;28;20519;-60
2024/01/09 10:29:05;;;;;;;8.53;5.73;;;-0.40;79.50;;;;;;5075598;28;20460;-60
2024/01/09 10:31:32;;;;;;;7.20;5.33;;;-0.30;79.60;;;;;;5075973;28;20821;-60
2024/01/09 10:33:59;;;;;;;9.20;5.87;;;-0.30;79.40;;;;;;5075842;28;20441;-60
2024/01/09 10:36:27;;;;;;;9.00;5.83;;;-0.20;78.70;;;;;;5075729;28;20448;-61
2024/01/09 10:39:02;;;;;;;12.37;7.23;;;-0.10;78.60;;;;;;5075721;28;20480;-61
2024/01/09 10:41:29;;;;;;;8.87;6.53;;;-0.10;77.30;;;;;;5075569;28;20922;-61
2024/01/09 10:43:56;;;;;;;9.90;6.03;;;0.00;75.80;;;;;;5074611;28;20487;-61
2024/01/09 10:46:25;;;;;;;9.10;6.53;;;0.10;76.60;;;;;;5075701;28;20463;-61
2024/01/09 10:48:53;;;;;;;11.13;6.77;;;0.10;76.40;;;;;;5075531;28;20471;-61
2024/01/09 10:51:22;;;;;;;10.23;6.30;;;0.30;77.60;;;;;;5075572;28;20441;-61
2024/01/09 10:53:50;;;;;;;9.60;6.87;;;0.30;76.30;;;;;;5075928;28;20494;-61
2024/01/09 10:56:20;;;;;;;8.17;6.50;;;0.40;74.90;;;;;;5075505;28;20970;-62
2024/01/09 10:58:48;;;;;;;10.83;6.20;;;0.50;74.60;;;;;;5075597;28;20469;-62
2024/01/09 11:01:15;;;;;;;9.80;6.93;;;0.60;74.30;;;;;;5075552;28;20502;-62
2024/01/09 11:03:43;;;;;;;10.87;6.80;;;0.70;74.20;;;;;;5075418;28;20476;-62
2024/01/09 11:06:11;;;;;;;8.63;6.43;;;0.80;74.10;;;;;;5075304;28;20527;-62
2024/01/09 11:08:39;;;;;;;8.93;5.40;;;0.90;73.60;;;;;;5075292;28;20465;-62
2024/01/09 11:11:13;;;;;;;11.30;5.70;;;1.00;72.60;;;;;;5075230;28;20480;-62
2024/01/09 11:13:46;;;;;;;9.93;6.07;;;1.20;72.50;;;;;;5075162;28;20421;-62
2024/01/09 11:16:14;;;;;;;9.33;6.03;;;1.40;71.20;;;;;;5075867;28;20425;-62
2024/01/09 11:18:41;;;;;;;11.10;6.83;;;1.50;69.60;;;;;;5074630;28;20841;-62
2024/01/09 11:21:11;;;;;;;10.73;6.10;;;1.70;69.00;;;;;;5075209;28;20440;-62
2024/01/09 11:23:54;;;;;;;6.30;5.27;;;1.90;68.60;;;;;;5074878;28;20989;-62
2024/01/09 11:26:22;;;;;;;7.47;5.80;;;2.30;67.30;;;;;;5075029;28;20429;-63
2024/01/09 11:28:48;;;;;;;7.87;5.27;;;2.70;65.70;;;;;;5074802;28;20499;-63
2024/01/09 11:31:20;;;;;;;8.43;5.97;;;3.10;64.90;;;;;;5074444;28;20455;-63
2024/01/09 11:33:48;;;;;;;10.43;6.17;;;3.50;63.90;;;;;;5074884;28;20919;-63
2024/01/09 11:36:21;;;;;;;7.63;5.40;;;3.90;61.70;;;;;;5074376;28;20457;-63
2024/01/09 11:38:49;;;;;;;14.00;5.37;;;4.30;58.80;;;;;;5074604;28;20461;-64
2024/01/09 11:41:16;;;;;;;6.70;5.67;;;4.60;55.90;;;;;;5074669;28;20440;-64
2024/01/09 11:44:00;;;;;;;7.27;5.27;;;4.80;54.50;;;;;;5074446;28;20484;-64
2024/01/09 11:46:27;;;;;;;7.30;5.33;;;5.10;53.20;;;;;;5074598;28;20449;-64
2024/01/09 11:48:54;;;;;;;8.33;6.13;;;5.40;52.40;;;;;;5074320;28;20464;-64
2024/01/09 11:51:23;;;;;;;10.93;8.17;;;5.60;52.50;;;;;;5074644;28;20439;-64
2024/01/09 11:53:51;;;;;;;10.97;8.10;;;5.90;51.50;;;;;;5074129;28;20498;-64
2024/01/09 11:56:19;;;;;;;8.03;6.17;;;6.20;49.80;;;;;;5074248;28;20455;-65
2024/01/09 11:58:46;;;;;;;12.17;7.70;;;6.40;48.80;;;;;;5074161;28;20503;-64
2024/01/09 12:01:13;;;;;;;8.10;6.53;;;6.60;48.50;;;;;;5074277;28;20443;-65
2024/01/09 12:03:40;;;;;;;14.63;6.73;;;6.80;46.10;;;;;;5074148;28;20480;-64
2024/01/09 12:06:07;;;;;;;7.80;5.50;;;6.90;46.20;;;;;;5073807;28;20441;-64
2024/01/09 12:08:35;;;;;;;7.90;5.60;;;7.10;46.00;;;;;;5074153;28;20465;-64
2024/01/09 12:11:02;;;;;;;7.93;5.80;;;7.30;46.40;;;;;;5074213;28;20460;-64
2024/01/09 12:13:29;;;;;;;10.40;6.20;;;7.40;45.80;;;;;;5074631;28;20440;-64
2024/01/09 12:15:56;;;;;;;8.00;6.03;;;7.70;45.20;;;;;;5074654;28;20440;-64
2024/01/09 12:18:23;;;;;;;7.03;6.30;;;7.90;43.90;;;;;;5074247;28;20460;-64
2024/01/09 12:20:50;;;;;;;6.43;5.60;;;8.00;42.10;;;;;;5074081;28;20973;-64
2024/01/09 12:23:19;;;;;;;8.07;5.73;;;8.20;41.70;;;;;;5074031;28;20481;-64
2024/01/09 12:25:48;;;;;;;7.60;6.00;;;8.30;41.10;;;;;;5073853;28;20452;-64
2024/01/09 12:28:16;;;;;;;7.50;5.77;;;8.50;40.90;;;;;;5073780;28;20518;-65
2024/01/09 12:30:43;;;;;;;8.27;5.63;;;8.60;40.90;;;;;;5073785;28;20821;-64
2024/01/09 12:33:09;;;;;;;7.93;5.73;;;8.70;39.60;;;;;;5073702;28;20472;-64
2024/01/09 12:35:37;;;;;;;8.77;6.60;;;8.80;39.60;;;;;;5073531;28;20456;-64
2024/01/09 12:38:05;;;;;;;5.83;5.23;;;8.80;39.10;;;;;;5073593;28;20462;-64
2024/01/09 12:40:31;;;;;;;8.17;5.83;;;8.80;38.80;;;;;;5073636;28;20498;-64
2024/01/09 12:43:09;;;;;;;6.50;5.20;;;9.00;39.70;;;;;;5074160;28;20878;-64
2024/01/09 12:45:38;;;;;;;7.80;5.67;;;9.10;39.80;;;;;;5073688;28;20230;-64
2024/01/09 12:48:07;;;;;;;9.80;5.20;;;9.20;39.80;;;;;;5073425;28;20475;-64